메인 페이지
METAR-TAF:

METAR-TAF

공항 :

코로르, 바벨다오브 섬, 팔라우

팔라우 국제공항

위도: 07-22N, 경도: 134-32E, 고도: 54m

현재 날씨관측

예보는 1 시간 2분 전, 23:54시(UTC)에 발표되었습니다.
11kt, 순간 최대 풍속 20kt
온도 25°C
습도 94%
기압 1011 hPa
시정: 20.9km
고도 1500ft 상공 구름 많음, 적란운.
고도 12000ft 상공 구름 많음
고도 30000ft 상공 흐림
약한소나기

METAR: PTRO 172354Z 08011G20KT 13SM -SHRA BKN015CB BKN120 OVC300 25/24 A2986 RMK CB ALQDS

시각: 09:56 (00:56 UTC)

예보

예보는 1 시간 34분 전, 23:22시(UTC)에 발표되었습니다.
예보 대상 시간: 18일 00시부터 18일 24시까지 (UTC)
북동13kt
시정: 10km
고도 1600ft 상공 구름 보통
고도 4000ft 상공 구름 보통
고도 12000ft 상공 구름 많음
시계 내 소나기
일시적
18일 00시부터 18일 04시까지 (UTC)
시정: 8.0km
고도 1600ft 상공 구름 많음
고도 3000ft 상공 흐림
소나기

TAF: PTRO 172322Z 1800/1824 04013KT P6SM VCSH SCT016 SCT040 BKN120 TEMPO 1800/1804 5SM SHRA BKN016 OVC030

4,000개 이상의 공항 관측 자료 및 예보 (METAR 및 TAF 보고).

지도상에서 검색 가능한 기상관측소가 노란 점과 빨간 점으로 표시되어 있습니다.

기상관측소 명을 보려면 표시 위로 마우스를 이동하세요.

날씨 관측과 예보를 보려면 클릭하세요.

지도 변경 : 확대하려면 엑스 표시가 있는 녹색 버튼, 축소하려면 빼기 표시가 있는 녹색 버튼, 다음 페이지의 지도를 보려면 녹색 화살표를 클릭하세요.


METAR-TAF: